This is the latest recevied weather packets stored in our database for station/object K4YY. If no packets are shown the sender has not sent any weather packets the latest 10 day(s).
| Time | Temp. | Humidity | Pressure | Rain* | Wind** | Luminosity | Snow |
|---|---|---|---|---|---|---|---|
| 1777615220 | 21.67° C | 87% | 1009.6 hPa | 0 mm | - | 0 W/m² | - |
| 1777608638 | 22.22° C | 86% | 1009.9 hPa | 0 mm | - | 0 W/m² | - |
| 1777598879 | 22.78° C | 84% | 1008.6 hPa | 0.25 mm | - | 0 W/m² | - |
| 1777563618 | 26.11° C | 68% | 1009.9 hPa | 0 mm | - | 849 W/m² | - |
| 1777556418 | 23.33° C | 82% | 1009.8 hPa | 0 mm | - | 208 W/m² | - |
| 1777554618 | 22.78° C | 84% | 1009.8 hPa | 0 mm | - | 156 W/m² | - |
| 1777554018 | 22.78° C | 84% | 1009.9 hPa | 0 mm | - | 151 W/m² | - |
| 1777551618 | 22.78° C | 84% | 1009.6 hPa | 0 mm | - | 80 W/m² | - |
| 1777538418 | 22.22° C | 78% | 1008.5 hPa | 0 mm | - | 0 W/m² | - |
| 1777537218 | 22.22° C | 78% | 1008.7 hPa | 0 mm | - | 0 W/m² | - |
| 1777534818 | 22.22° C | 78% | 1008.5 hPa | 0.25 mm | - | 0 W/m² | - |
| 1777531238 | 23.33° C | 69% | 1008.8 hPa | 0 mm | - | 0 W/m² | - |
| 1777518018 | 26.11° C | 50% | 1011.3 hPa | 0 mm | - | 0 W/m² | - |
| 1777514418 | 27.22° C | 43% | 1010.8 hPa | 0 mm | - | 0 W/m² | - |
| 1777509618 | 29.44° C | 44% | 1009.4 hPa | 0 mm | - | 0 W/m² | - |
| 1777509018 | 29.44° C | 45% | 1008.6 hPa | 0 mm | - | 0 W/m² | - |
| 1777508418 | 30° C | 44% | 1008.8 hPa | 0 mm | - | 0 W/m² | - |
| 1777502438 | 32.22° C | 41% | 1008.1 hPa | 0 mm | - | 190 W/m² | - |
| 1777499418 | 32.78° C | 40% | 1008.1 hPa | 0 mm | - | 244 W/m² | - |
| 1777497019 | 32.22° C | 41% | 1008.7 hPa | 0 mm | - | 246 W/m² | - |
| 1777495219 | 32.22° C | 38% | 1009 hPa | 0 mm | - | 670 W/m² | - |
| 1777494039 | 32.22° C | 38% | 1009.5 hPa | 0 mm | - | 731 W/m² | - |
| 1777492839 | 31.67° C | 44% | 1010 hPa | 0 mm | - | 786 W/m² | - |
| 1777490419 | 31.11° C | 42% | 1010.8 hPa | 0 mm | - | 888 W/m² | - |
| 1777489218 | 30.56° C | 49% | 1011.2 hPa | 0 mm | - | 444 W/m² | - |
* Rain latest hour (hover to see other rain measurements)
** Current wind speed in m/s (hover to see current wind gust speed)